createdAt,value
2023-05-05T00:01:08.655Z,14.07
2023-05-05T00:03:37.930Z,18.00
2023-05-05T00:06:05.491Z,15.10
2023-05-05T00:08:32.109Z,13.32
2023-05-05T00:10:58.595Z,15.90
2023-05-05T00:13:25.527Z,19.67
2023-05-05T00:15:53.605Z,18.98
2023-05-05T00:18:21.089Z,15.93
2023-05-05T00:20:47.992Z,17.02
2023-05-05T00:23:17.892Z,18.80
2023-05-05T00:25:44.518Z,15.50
2023-05-05T00:28:11.296Z,15.40
2023-05-05T00:30:39.358Z,13.18
2023-05-05T00:33:06.649Z,16.40
2023-05-05T00:35:33.168Z,14.13
2023-05-05T00:37:59.768Z,15.52
2023-05-05T00:40:26.859Z,20.23
2023-05-05T00:42:53.514Z,14.40
2023-05-05T00:45:20.478Z,17.90
2023-05-05T00:47:57.622Z,20.05
2023-05-05T00:50:25.417Z,18.40
2023-05-05T00:52:53.087Z,17.38
2023-05-05T00:55:19.695Z,16.65
2023-05-05T00:57:46.320Z,14.70
2023-05-05T01:00:13.230Z,20.38
2023-05-05T01:02:40.310Z,18.10
2023-05-05T01:05:07.961Z,16.52
2023-05-05T01:07:43.335Z,18.70
2023-05-05T01:10:22.438Z,16.20
2023-05-05T01:12:55.058Z,18.55
2023-05-05T01:15:21.489Z,21.17
2023-05-05T01:17:52.587Z,24.80
2023-05-05T01:20:31.312Z,17.42
2023-05-05T01:23:00.528Z,20.30
2023-05-05T01:25:45.521Z,23.27
2023-05-05T01:28:30.516Z,22.55
2023-05-05T01:30:56.956Z,25.35
2023-05-05T01:33:26.134Z,27.25
2023-05-05T01:35:55.115Z,20.23
2023-05-05T01:38:23.098Z,24.20
2023-05-05T01:40:51.897Z,24.95
2023-05-05T01:43:20.158Z,21.75
2023-05-05T01:45:47.245Z,20.95
2023-05-05T01:48:16.486Z,22.58
2023-05-05T01:50:43.826Z,27.15
2023-05-05T01:53:10.585Z,19.60
2023-05-05T01:55:37.402Z,19.10
2023-05-05T01:58:04.979Z,23.50
2023-05-05T02:00:32.155Z,20.05
2023-05-05T02:03:01.117Z,21.48
2023-05-05T02:05:28.169Z,24.90
2023-05-05T02:07:56.867Z,18.48
2023-05-05T02:10:23.693Z,24.02
2023-05-05T02:12:50.777Z,23.95
2023-05-05T02:15:17.687Z,23.30
2023-05-05T02:17:45.176Z,23.67
2023-05-05T02:20:12.809Z,24.77
2023-05-05T02:22:39.483Z,20.65
2023-05-05T02:25:06.754Z,24.67
2023-05-05T02:27:34.969Z,26.77
2023-05-05T02:30:13.773Z,26.45
2023-05-05T02:32:45.286Z,23.20
2023-05-05T02:35:17.181Z,25.15
2023-05-05T02:40:10.684Z,22.08
2023-05-05T02:42:39.521Z,27.77
2023-05-05T02:45:10.796Z,29.52
2023-05-05T02:47:38.218Z,25.23
2023-05-05T02:50:06.036Z,27.67
2023-05-05T02:52:33.487Z,28.00
2023-05-05T02:55:00.269Z,22.90
2023-05-05T02:57:47.059Z,28.05
2023-05-05T03:00:39.714Z,26.08
2023-05-05T03:03:14.185Z,25.58
2023-05-05T03:05:53.833Z,26.75
2023-05-05T03:08:33.138Z,33.05
2023-05-05T03:11:03.632Z,28.63
2023-05-05T03:13:31.699Z,33.47
2023-05-05T03:15:59.292Z,31.10
2023-05-05T03:18:27.035Z,32.17
2023-05-05T03:20:53.560Z,34.47
2023-05-05T03:23:21.162Z,28.48
2023-05-05T03:25:48.490Z,30.17
2023-05-05T03:28:15.429Z,25.40
2023-05-05T03:30:42.393Z,28.63
2023-05-05T03:33:10.374Z,31.15
2023-05-05T03:35:36.868Z,27.38
2023-05-05T03:38:03.386Z,28.77
2023-05-05T03:40:42.897Z,26.48
2023-05-05T03:43:09.890Z,28.40
2023-05-05T03:45:36.418Z,28.13
2023-05-05T03:48:03.188Z,33.67
2023-05-05T03:50:29.723Z,32.20
2023-05-05T03:52:56.262Z,35.13
2023-05-05T03:55:22.798Z,34.85
2023-05-05T03:57:49.283Z,36.47
2023-05-05T04:00:16.052Z,29.55
2023-05-05T04:02:43.674Z,40.15
2023-05-05T04:05:10.309Z,38.05
2023-05-05T04:07:36.741Z,36.45
2023-05-05T04:10:03.258Z,40.75
2023-05-05T04:12:29.686Z,40.20
2023-05-05T04:14:56.121Z,42.95
2023-05-05T04:17:22.618Z,34.55
2023-05-05T04:19:49.276Z,34.05
2023-05-05T04:22:15.843Z,32.85
2023-05-05T04:24:42.362Z,36.30
2023-05-05T04:27:08.807Z,34.00
2023-05-05T04:29:35.302Z,36.63
2023-05-05T04:32:01.823Z,30.77
2023-05-05T04:34:28.281Z,29.58
2023-05-05T04:36:54.729Z,29.30
2023-05-05T04:39:21.653Z,28.45
2023-05-05T04:41:48.128Z,29.83
2023-05-05T04:44:14.607Z,27.58
